createdAt,value
2019-03-23T00:01:39.214Z,99835.04
2019-03-23T00:04:06.026Z,99830.41
2019-03-23T00:06:33.116Z,99835.47
2019-03-23T00:09:00.124Z,99834.24
2019-03-23T00:11:29.937Z,99834.53
2019-03-23T00:13:57.207Z,99834.75
2019-03-23T00:16:24.036Z,99832.25
2019-03-23T00:18:51.012Z,99835.78
2019-03-23T00:21:17.836Z,99837.84
2019-03-23T00:23:44.721Z,99837.84
2019-03-23T00:26:13.345Z,99840.60
2019-03-23T00:28:40.298Z,99834.44
2019-03-23T00:31:07.063Z,99837.16
2019-03-23T00:33:37.051Z,99832.23
2019-03-23T00:36:04.225Z,99833.91
2019-03-23T00:38:31.011Z,99834.56
2019-03-23T00:40:57.831Z,99832.03
2019-03-23T00:43:25.125Z,99831.45
2019-03-23T00:45:51.927Z,99831.16
2019-03-23T00:48:18.685Z,99827.40
2019-03-23T00:50:45.837Z,99826.12
2019-03-23T00:53:12.733Z,99824.63
2019-03-23T00:55:41.515Z,99826.02
2019-03-23T00:58:08.398Z,99826.75
2019-03-23T01:00:35.314Z,99827.83
2019-03-23T01:03:02.615Z,99826.13
2019-03-23T01:05:30.996Z,99829.06
2019-03-23T01:07:57.916Z,99836.63
2019-03-23T01:10:24.923Z,99829.67
2019-03-23T01:12:52.244Z,99824.09
2019-03-23T01:15:19.401Z,99825.92
2019-03-23T01:17:46.180Z,99823.61
2019-03-23T01:20:13.545Z,99824.97
2019-03-23T01:22:40.818Z,99828.77
2019-03-23T01:25:09.690Z,99827.09
2019-03-23T01:27:36.639Z,99825.87
2019-03-23T01:30:10.743Z,99829.45
2019-03-23T01:32:38.302Z,99822.33
2019-03-23T01:35:06.936Z,99819.21
2019-03-23T01:37:34.148Z,99827.27
2019-03-23T01:40:01.040Z,99831.01
2019-03-23T01:42:28.054Z,99830.09
2019-03-23T01:44:55.420Z,99830.06
2019-03-23T01:47:22.295Z,99823.77
2019-03-23T01:49:51.567Z,99824.31
2019-03-23T01:52:19.014Z,99822.11
2019-03-23T01:54:45.894Z,99821.41
2019-03-23T01:57:12.736Z,99824.97
2019-03-23T01:59:39.843Z,99816.80
2019-03-23T02:02:07.194Z,99811.19
2019-03-23T02:04:35.303Z,99818.49
2019-03-23T02:07:13.013Z,99814.40
2019-03-23T02:09:31.377Z,99814.31
2019-03-23T02:11:58.650Z,99813.39
2019-03-23T02:14:25.626Z,99814.51
2019-03-23T02:16:52.619Z,99812.45
2019-03-23T02:19:19.874Z,99811.08
2019-03-23T02:21:46.806Z,99815.00
2019-03-23T02:24:13.614Z,99818.55
2019-03-23T02:26:41.101Z,99818.94
2019-03-23T02:29:08.120Z,99819.01
2019-03-23T02:31:35.326Z,99820.00
2019-03-23T02:34:02.125Z,99815.66
2019-03-23T02:36:29.725Z,99822.07
2019-03-23T02:38:56.971Z,99824.02
2019-03-23T02:41:24.109Z,99827.63
2019-03-23T02:43:51.136Z,99820.52
2019-03-23T02:46:17.922Z,99823.13
2019-03-23T02:48:45.230Z,99820.06
2019-03-23T02:51:12.246Z,99821.41
2019-03-23T02:53:39.470Z,99824.77
2019-03-23T02:56:06.917Z,99823.53
2019-03-23T02:58:33.904Z,99821.69
2019-03-23T03:01:01.055Z,99819.97
2019-03-23T03:03:28.890Z,99819.33
2019-03-23T03:05:55.766Z,99822.19
2019-03-23T03:08:26.616Z,99819.52
2019-03-23T03:10:53.680Z,99820.84
2019-03-23T03:13:20.631Z,99815.97
2019-03-23T03:15:48.116Z,99812.60
2019-03-23T03:18:15.092Z,99814.52
2019-03-23T03:20:41.863Z,99814.59
2019-03-23T03:23:09.150Z,99818.39
2019-03-23T03:25:36.477Z,99815.39
2019-03-23T03:28:04.268Z,99817.92
2019-03-23T03:30:31.179Z,99815.30
2019-03-23T03:32:58.170Z,99819.62
2019-03-23T03:35:25.410Z,99818.20
2019-03-23T03:37:56.800Z,99823.28
2019-03-23T03:40:21.444Z,99815.12
2019-03-23T03:42:48.841Z,99818.65
2019-03-23T03:45:28.501Z,99809.92
2019-03-23T03:47:55.754Z,99816.19
2019-03-23T03:50:23.109Z,99813.30
2019-03-23T03:52:52.869Z,99816.73
2019-03-23T03:55:19.620Z,99815.28
2019-03-23T03:57:46.670Z,99815.41
2019-03-23T04:00:14.205Z,99810.83
2019-03-23T04:02:41.537Z,99813.16
2019-03-23T04:05:08.747Z,99809.59
2019-03-23T04:07:35.946Z,99815.81
2019-03-23T04:10:07.531Z,99814.22
2019-03-23T04:12:34.693Z,99812.77
2019-03-23T04:15:01.776Z,99809.45
2019-03-23T04:17:28.661Z,99813.84
2019-03-23T04:19:55.487Z,99816.93
2019-03-23T04:22:23.112Z,99816.42
2019-03-23T04:24:49.988Z,99815.12
2019-03-23T04:27:17.278Z,99818.64
2019-03-23T04:29:44.065Z,99811.52
2019-03-23T04:32:13.979Z,99815.37
2019-03-23T04:34:41.477Z,99813.45
2019-03-23T04:37:10.176Z,99816.25
2019-03-23T04:39:37.277Z,99818.64
2019-03-23T04:42:04.481Z,99814.91
2019-03-23T04:44:31.945Z,99817.59
2019-03-23T04:46:58.942Z,99815.02
2019-03-23T04:49:25.810Z,99820.45
2019-03-23T04:51:53.140Z,99820.31
2019-03-23T04:54:19.921Z,99815.59
2019-03-23T04:56:46.781Z,99819.05
2019-03-23T04:59:15.510Z,99811.78
2019-03-23T05:01:42.583Z,99813.09
2019-03-23T05:04:10.067Z,99818.97
2019-03-23T05:06:36.831Z,99824.48
2019-03-23T05:09:07.280Z,99821.26
2019-03-23T05:11:36.418Z,99826.17
2019-03-23T05:14:03.318Z,99826.29
2019-03-23T05:16:30.357Z,99826.16
2019-03-23T05:18:57.189Z,99828.60
2019-03-23T05:21:27.165Z,99832.83
2019-03-23T05:23:54.207Z,99835.39
2019-03-23T05:26:22.993Z,99836.66
2019-03-23T05:28:49.913Z,99831.41
2019-03-23T05:31:16.940Z,99839.55
2019-03-23T05:33:43.830Z,99835.61
2019-03-23T05:36:11.200Z,99839.14
2019-03-23T05:38:44.442Z,99837.45
2019-03-23T05:41:07.461Z,99845.57
2019-03-23T05:43:35.071Z,99837.03
2019-03-23T05:46:04.265Z,99841.57
2019-03-23T05:48:31.041Z,99843.00
2019-03-23T05:50:57.904Z,99834.61
2019-03-23T05:53:24.851Z,99839.77
2019-03-23T05:55:51.975Z,99847.31
2019-03-23T05:58:19.703Z,99847.87
2019-03-23T06:00:46.538Z,99850.75
2019-03-23T06:03:14.047Z,99849.92
2019-03-23T06:05:41.079Z,99845.67
2019-03-23T06:08:08.434Z,99844.28
2019-03-23T06:10:35.767Z,99849.81
2019-03-23T06:13:02.920Z,99845.39
2019-03-23T06:15:30.011Z,99850.19
2019-03-23T06:17:56.823Z,99850.06
2019-03-23T06:20:25.541Z,99850.69
2019-03-23T06:22:52.679Z,99851.75
2019-03-23T06:25:19.547Z,99850.42
2019-03-23T06:27:46.770Z,99857.84
2019-03-23T06:30:17.882Z,99854.39
2019-03-23T06:32:44.862Z,99856.16
2019-03-23T06:35:11.834Z,99853.92
2019-03-23T06:37:38.755Z,99861.73
2019-03-23T06:40:09.343Z,99856.61
2019-03-23T06:42:36.552Z,99856.36
2019-03-23T06:45:11.395Z,99855.02
2019-03-23T06:47:41.063Z,99851.52
2019-03-23T06:50:09.953Z,99852.19
2019-03-23T06:52:37.616Z,99845.25
2019-03-23T06:55:06.764Z,99847.78
2019-03-23T06:57:33.863Z,99854.00
2019-03-23T07:00:01.210Z,99848.62
2019-03-23T07:02:28.216Z,99848.16
2019-03-23T07:04:55.620Z,99848.45
2019-03-23T07:07:23.037Z,99846.48
2019-03-23T07:10:05.170Z,99847.05
2019-03-23T07:12:32.524Z,99846.13
2019-03-23T07:14:59.440Z,99850.94
2019-03-23T07:17:28.735Z,99849.66
2019-03-23T07:19:56.568Z,99849.78
2019-03-23T07:22:23.661Z,99856.92
2019-03-23T07:24:50.535Z,99858.18
2019-03-23T07:27:17.347Z,99856.50
2019-03-23T07:29:44.716Z,99855.96
2019-03-23T07:32:11.877Z,99855.39
2019-03-23T07:34:39.185Z,99856.81
2019-03-23T07:37:08.505Z,99856.36
2019-03-23T07:39:35.423Z,99851.54
2019-03-23T07:42:02.397Z,99855.95
2019-03-23T07:44:29.976Z,99852.03
2019-03-23T07:46:56.746Z,99857.35
2019-03-23T07:49:23.797Z,99851.56
2019-03-23T07:51:50.616Z,99854.95
2019-03-23T07:54:17.502Z,99857.53
2019-03-23T07:56:45.104Z,99866.13
2019-03-23T07:59:11.971Z,99860.05
2019-03-23T08:01:39.162Z,99854.83
2019-03-23T08:04:06.475Z,99859.24
2019-03-23T08:06:33.734Z,99859.88
2019-03-23T08:09:00.915Z,99866.52
2019-03-23T08:11:27.887Z,99862.91
2019-03-23T08:13:57.797Z,99864.66
2019-03-23T08:16:25.045Z,99856.95
2019-03-23T08:18:51.926Z,99863.55
2019-03-23T08:21:18.871Z,99860.39
2019-03-23T08:23:46.057Z,99856.08
2019-03-23T08:26:13.651Z,99859.93
2019-03-23T08:28:40.526Z,99853.97
2019-03-23T08:31:07.779Z,99855.60
2019-03-23T08:33:35.238Z,99850.94
2019-03-23T08:36:02.559Z,99857.37
2019-03-23T08:38:30.098Z,99856.44
2019-03-23T08:40:57.276Z,99863.63
2019-03-23T08:43:24.190Z,99860.47
2019-03-23T08:45:51.199Z,99865.70
2019-03-23T08:48:18.347Z,99859.19
2019-03-23T08:50:47.882Z,99848.56
2019-03-23T08:53:14.762Z,99848.53
2019-03-23T08:55:41.950Z,99849.05
2019-03-23T08:58:08.824Z,99845.06
2019-03-23T09:00:36.085Z,99847.44
2019-03-23T09:03:03.866Z,99844.12
2019-03-23T09:05:30.820Z,99846.61
2019-03-23T09:07:58.067Z,99844.14
2019-03-23T09:10:24.909Z,99846.17
2019-03-23T09:12:51.984Z,99848.32
2019-03-23T09:15:19.219Z,99845.62
2019-03-23T09:17:46.074Z,99846.00
2019-03-23T09:20:13.472Z,99850.11
2019-03-23T09:22:40.701Z,99851.53
2019-03-23T09:25:08.795Z,99848.75
2019-03-23T09:27:35.785Z,99849.91
2019-03-23T09:30:10.561Z,99853.70
2019-03-23T09:32:37.634Z,99852.43
2019-03-23T09:35:05.095Z,99856.18
2019-03-23T09:37:31.981Z,99853.73
2019-03-23T09:40:10.089Z,99851.83
2019-03-23T09:42:28.115Z,99850.93
2019-03-23T09:44:55.564Z,99852.80
2019-03-23T09:47:22.348Z,99852.00
2019-03-23T09:49:49.538Z,99849.69
2019-03-23T09:52:16.340Z,99845.66
2019-03-23T09:54:43.304Z,99849.71
2019-03-23T09:57:10.422Z,99843.99
2019-03-23T09:59:37.468Z,99842.95
2019-03-23T10:02:04.375Z,99842.34
2019-03-23T10:04:31.182Z,99848.14
2019-03-23T10:06:58.240Z,99839.47
2019-03-23T10:09:25.401Z,99832.33
2019-03-23T10:11:52.429Z,99839.84
2019-03-23T10:14:19.290Z,99833.77
2019-03-23T10:16:46.554Z,99836.67
2019-03-23T10:19:13.347Z,99830.88
2019-03-23T10:21:40.250Z,99831.17
2019-03-23T10:24:07.055Z,99829.31
2019-03-23T10:26:33.839Z,99830.88
2019-03-23T10:29:01.141Z,99827.77
2019-03-23T10:31:28.362Z,99828.76
2019-03-23T10:33:56.210Z,99828.84
2019-03-23T10:36:23.337Z,99825.47
2019-03-23T10:38:50.095Z,99822.70
2019-03-23T10:41:17.360Z,99819.30
2019-03-23T10:43:46.150Z,99822.52
2019-03-23T10:46:13.550Z,99825.94
2019-03-23T10:48:40.719Z,99825.77
2019-03-23T10:51:07.654Z,99821.19
2019-03-23T10:53:34.880Z,99823.25
2019-03-23T10:56:01.742Z,99820.73
2019-03-23T10:58:28.968Z,99819.17
2019-03-23T11:00:56.293Z,99821.01
2019-03-23T11:03:23.175Z,99827.58
2019-03-23T11:05:50.498Z,99822.39
2019-03-23T11:08:17.296Z,99823.77
2019-03-23T11:10:44.077Z,99820.78
2019-03-23T11:13:11.048Z,99823.78
2019-03-23T11:15:38.886Z,99820.18
2019-03-23T11:18:05.646Z,99822.03
2019-03-23T11:20:33.778Z,99826.61
2019-03-23T11:23:02.787Z,99824.39
2019-03-23T11:25:30.019Z,99821.64
2019-03-23T11:27:57.295Z,99821.30
2019-03-23T11:30:24.240Z,99818.39
2019-03-23T11:32:51.459Z,99821.81
2019-03-23T11:35:20.121Z,99817.72
2019-03-23T11:37:47.142Z,99819.20
2019-03-23T11:40:14.257Z,99820.91
2019-03-23T11:42:49.225Z,99818.03
2019-03-23T11:45:10.603Z,99819.29
2019-03-23T11:47:37.618Z,99817.70
2019-03-23T11:50:06.415Z,99816.03
2019-03-23T11:52:33.280Z,99816.48
2019-03-23T11:55:00.349Z,99811.15
2019-03-23T11:57:27.381Z,99812.37
2019-03-23T11:59:54.527Z,99812.69
2019-03-23T12:02:21.680Z,99812.66
2019-03-23T12:04:49.256Z,99814.13
2019-03-23T12:07:16.072Z,99814.31
2019-03-23T12:09:43.552Z,99807.95
2019-03-23T12:12:11.575Z,99812.75
2019-03-23T12:14:38.374Z,99814.28
2019-03-23T12:17:06.765Z,99800.76
2019-03-23T12:19:34.167Z,99802.81
2019-03-23T12:22:01.359Z,99813.39
2019-03-23T12:24:28.230Z,99799.67
2019-03-23T12:26:55.266Z,99801.52
2019-03-23T12:29:22.503Z,99794.69
2019-03-23T12:31:49.289Z,99787.88
2019-03-23T12:34:16.047Z,99794.45
2019-03-23T12:36:44.289Z,99794.13
2019-03-23T12:39:11.438Z,99790.05
2019-03-23T12:41:38.391Z,99792.50
2019-03-23T12:44:05.671Z,99784.52
2019-03-23T12:46:32.512Z,99782.45
2019-03-23T12:48:59.899Z,99778.70
2019-03-23T12:51:26.781Z,99783.60
2019-03-23T12:53:54.280Z,99779.52
2019-03-23T12:56:21.319Z,99770.33
2019-03-23T12:58:48.384Z,99772.80
2019-03-23T13:01:15.414Z,99764.83
2019-03-23T13:03:45.043Z,99764.66
2019-03-23T13:06:14.539Z,99767.78
2019-03-23T13:08:41.653Z,99764.81
2019-03-23T13:11:23.088Z,99764.21
2019-03-23T13:13:42.806Z,99763.73
2019-03-23T13:16:10.479Z,99762.17
2019-03-23T13:18:38.035Z,99755.61
2019-03-23T13:21:05.144Z,99751.55
2019-03-23T13:23:32.579Z,99760.88
2019-03-23T13:25:59.730Z,99753.24
2019-03-23T13:28:26.676Z,99744.61
2019-03-23T13:30:53.967Z,99753.00
2019-03-23T13:33:20.980Z,99743.77
2019-03-23T13:35:48.996Z,99742.52
2019-03-23T13:38:15.926Z,99744.38
2019-03-23T13:40:44.252Z,99737.06
2019-03-23T13:43:11.623Z,99735.05
2019-03-23T13:45:42.668Z,99736.41
2019-03-23T13:48:11.091Z,99732.44
2019-03-23T13:50:37.884Z,99732.63
2019-03-23T13:53:05.455Z,99728.89
2019-03-23T13:55:33.222Z,99720.92
2019-03-23T13:58:09.014Z,99724.66
2019-03-23T14:00:36.888Z,99723.75
2019-03-23T14:03:06.214Z,99719.73
2019-03-23T14:05:33.375Z,99719.31
2019-03-23T14:08:00.321Z,99717.70
2019-03-23T14:10:28.114Z,99716.78
2019-03-23T14:12:56.056Z,99718.11
2019-03-23T14:15:23.050Z,99722.02
2019-03-23T14:17:50.088Z,99712.91
2019-03-23T14:20:17.369Z,99713.11
2019-03-23T14:22:44.357Z,99713.96
2019-03-23T14:25:11.251Z,99710.17
2019-03-23T14:27:39.030Z,99708.20
2019-03-23T14:30:07.231Z,99702.72
2019-03-23T14:32:34.312Z,99703.95
2019-03-23T14:35:01.567Z,99702.34
2019-03-23T14:37:28.907Z,99697.20
2019-03-23T14:39:56.524Z,99699.33
2019-03-23T14:42:23.800Z,99691.67
2019-03-23T14:44:51.874Z,99687.78
2019-03-23T14:47:20.582Z,99694.27
2019-03-23T14:49:47.411Z,99694.23
2019-03-23T14:52:14.352Z,99693.22
2019-03-23T14:54:41.302Z,99694.30
2019-03-23T14:57:08.989Z,99690.83
2019-03-23T14:59:49.524Z,99681.37
2019-03-23T15:02:16.527Z,99678.70
2019-03-23T15:04:43.722Z,99683.59
2019-03-23T15:07:10.600Z,99676.95
2019-03-23T15:09:37.615Z,99676.59
2019-03-23T15:12:14.532Z,99674.41
2019-03-23T15:14:34.044Z,99679.91
2019-03-23T15:17:00.800Z,99677.33
2019-03-23T15:19:28.008Z,99673.97
2019-03-23T15:21:55.501Z,99674.05
2019-03-23T15:24:22.766Z,99673.11
2019-03-23T15:26:49.780Z,99671.69
2019-03-23T15:29:17.266Z,99675.80
2019-03-23T15:31:44.173Z,99672.91
2019-03-23T15:34:11.189Z,99672.06
2019-03-23T15:36:38.173Z,99673.20
2019-03-23T15:39:07.090Z,99673.99
2019-03-23T15:41:34.379Z,99663.84
2019-03-23T15:44:04.399Z,99664.86
2019-03-23T15:46:31.188Z,99666.94
2019-03-23T15:48:58.134Z,99665.56
2019-03-23T15:51:25.033Z,99668.08
2019-03-23T15:53:52.034Z,99665.66
2019-03-23T15:56:21.058Z,99664.45
2019-03-23T15:58:48.174Z,99670.23
2019-03-23T16:01:15.625Z,99666.77
2019-03-23T16:03:42.420Z,99671.45
2019-03-23T16:06:09.417Z,99669.92
2019-03-23T16:08:36.143Z,99668.70
2019-03-23T16:11:03.617Z,99669.20
2019-03-23T16:13:30.579Z,99671.63
2019-03-23T16:15:57.402Z,99671.66
2019-03-23T16:18:25.311Z,99673.56
2019-03-23T16:20:52.498Z,99679.47
2019-03-23T16:23:19.345Z,99674.23
2019-03-23T16:25:46.145Z,99673.05
2019-03-23T16:28:13.211Z,99676.30
2019-03-23T16:30:40.435Z,99675.03
2019-03-23T16:33:07.483Z,99681.49
2019-03-23T16:35:34.323Z,99677.45
2019-03-23T16:38:01.356Z,99674.46
2019-03-23T16:40:28.362Z,99678.86
2019-03-23T16:42:56.167Z,99680.47
2019-03-23T16:45:23.754Z,99681.77
2019-03-23T16:47:51.017Z,99674.30
2019-03-23T16:50:17.869Z,99674.95
2019-03-23T16:52:45.032Z,99681.02
2019-03-23T16:55:13.459Z,99678.82
2019-03-23T16:57:42.527Z,99674.80
2019-03-23T17:00:12.590Z,99679.88
2019-03-23T17:02:39.721Z,99679.89
2019-03-23T17:05:07.208Z,99679.81
2019-03-23T17:07:34.612Z,99679.70
2019-03-23T17:10:01.631Z,99680.19
2019-03-23T17:12:30.220Z,99677.78
2019-03-23T17:14:57.158Z,99677.28
2019-03-23T17:17:24.587Z,99682.77
2019-03-23T17:19:52.426Z,99683.20
2019-03-23T17:22:19.285Z,99678.76
2019-03-23T17:24:46.219Z,99683.27
2019-03-23T17:27:13.582Z,99688.75
2019-03-23T17:29:41.942Z,99683.17
2019-03-23T17:32:09.088Z,99683.63
2019-03-23T17:34:36.077Z,99696.34
2019-03-23T17:37:03.618Z,99693.25
2019-03-23T17:39:30.444Z,99699.13
2019-03-23T17:41:58.273Z,99700.77
2019-03-23T17:44:25.248Z,99694.55
2019-03-23T17:46:52.524Z,99698.67
2019-03-23T17:49:22.285Z,99699.47
2019-03-23T17:51:49.148Z,99702.20
2019-03-23T17:54:15.914Z,99704.52
2019-03-23T17:56:45.832Z,99709.13
2019-03-23T17:59:12.980Z,99712.22
2019-03-23T18:01:40.142Z,99713.71
2019-03-23T18:04:07.039Z,99718.84
2019-03-23T18:06:34.622Z,99721.65
2019-03-23T18:09:04.062Z,99719.87
2019-03-23T18:11:31.650Z,99720.67
2019-03-23T18:13:59.211Z,99721.65
2019-03-23T18:16:26.702Z,99728.52
2019-03-23T18:18:53.620Z,99728.99
2019-03-23T18:21:21.709Z,99732.16
2019-03-23T18:23:49.001Z,99734.09
2019-03-23T18:26:16.711Z,99733.79
2019-03-23T18:28:43.693Z,99740.84
2019-03-23T18:31:10.751Z,99741.92
2019-03-23T18:33:38.021Z,99737.86
2019-03-23T18:36:05.257Z,99739.25
2019-03-23T18:38:32.470Z,99739.77
2019-03-23T18:40:59.414Z,99743.66
2019-03-23T18:43:27.703Z,99749.00
2019-03-23T18:45:54.980Z,99748.84
2019-03-23T18:48:22.025Z,99747.38
2019-03-23T18:50:49.131Z,99750.53
2019-03-23T18:53:17.032Z,99764.25
2019-03-23T18:55:43.956Z,99766.10
2019-03-23T18:58:10.764Z,99767.92
2019-03-23T19:00:42.600Z,99770.06
2019-03-23T19:03:10.883Z,99772.66
2019-03-23T19:05:38.419Z,99783.75
2019-03-23T19:08:05.655Z,99774.45
2019-03-23T19:10:32.800Z,99777.64
2019-03-23T19:12:59.853Z,99774.00
2019-03-23T19:15:27.224Z,99775.98
2019-03-23T19:17:54.302Z,99775.94
2019-03-23T19:20:21.450Z,99770.02
2019-03-23T19:22:48.573Z,99775.59
2019-03-23T19:25:18.592Z,99776.48
2019-03-23T19:27:46.061Z,99776.04
2019-03-23T19:30:14.410Z,99777.44
2019-03-23T19:32:41.605Z,99778.91
2019-03-23T19:35:09.049Z,99778.53
2019-03-23T19:37:35.876Z,99785.86
2019-03-23T19:40:05.779Z,99787.34
2019-03-23T19:42:33.033Z,99783.66
2019-03-23T19:45:00.583Z,99793.19
2019-03-23T19:47:27.755Z,99792.88
2019-03-23T19:49:54.935Z,99798.36
2019-03-23T19:52:22.954Z,99796.05
2019-03-23T19:54:49.786Z,99806.94
2019-03-23T19:57:17.007Z,99802.03
2019-03-23T19:59:48.768Z,99802.30
2019-03-23T20:02:19.400Z,99812.91
2019-03-23T20:04:49.000Z,99812.41
2019-03-23T20:07:19.024Z,99815.06
2019-03-23T20:09:46.205Z,99815.39
2019-03-23T20:12:13.089Z,99815.71
2019-03-23T20:14:41.687Z,99813.14
2019-03-23T20:17:08.760Z,99808.50
2019-03-23T20:19:35.519Z,99810.98
2019-03-23T20:22:02.886Z,99807.56
2019-03-23T20:24:30.371Z,99806.86
2019-03-23T20:26:57.366Z,99808.81
2019-03-23T20:29:24.227Z,99805.36
2019-03-23T20:31:50.984Z,99808.05
2019-03-23T20:34:18.123Z,99804.45
2019-03-23T20:36:45.857Z,99811.23
2019-03-23T20:39:12.809Z,99807.23
2019-03-23T20:41:40.190Z,99811.32
2019-03-23T20:44:09.764Z,99808.02
2019-03-23T20:46:36.523Z,99802.89
2019-03-23T20:49:06.452Z,99798.84
2019-03-23T20:51:33.587Z,99800.50
2019-03-23T20:54:00.626Z,99812.19
2019-03-23T20:56:27.415Z,99810.57
2019-03-23T20:58:56.978Z,99814.39
2019-03-23T21:01:23.965Z,99810.28
2019-03-23T21:03:51.044Z,99813.02
2019-03-23T21:06:17.921Z,99807.27
2019-03-23T21:08:44.710Z,99810.57
2019-03-23T21:11:12.061Z,99813.30
2019-03-23T21:13:46.096Z,99810.86
2019-03-23T21:16:13.075Z,99810.03
2019-03-23T21:18:39.983Z,99808.95
2019-03-23T21:21:07.063Z,99813.02
2019-03-23T21:23:34.353Z,99812.19
2019-03-23T21:26:01.282Z,99814.89
2019-03-23T21:28:28.720Z,99815.95
2019-03-23T21:30:55.707Z,99810.83
2019-03-23T21:33:23.393Z,99809.19
2019-03-23T21:35:50.946Z,99807.85
2019-03-23T21:38:17.936Z,99813.81
2019-03-23T21:40:44.880Z,99814.61
2019-03-23T21:43:11.823Z,99811.05
2019-03-23T21:45:39.205Z,99814.32
2019-03-23T21:48:06.051Z,99808.67
2019-03-23T21:50:33.085Z,99805.95
2019-03-23T21:52:59.930Z,99801.09
2019-03-23T21:55:27.109Z,99805.70
2019-03-23T21:57:54.334Z,99797.55
2019-03-23T22:00:28.866Z,99803.77
2019-03-23T22:02:55.711Z,99798.33
2019-03-23T22:05:23.007Z,99789.91
2019-03-23T22:07:51.157Z,99780.98
2019-03-23T22:10:18.655Z,99781.48
2019-03-23T22:12:49.073Z,99783.41
2019-03-23T22:15:18.918Z,99774.67
2019-03-23T22:17:46.140Z,99777.97
2019-03-23T22:20:13.209Z,99779.86
2019-03-23T22:22:41.146Z,99777.97
2019-03-23T22:25:08.598Z,99777.09
2019-03-23T22:27:37.292Z,99779.52
2019-03-23T22:30:08.778Z,99780.59
2019-03-23T22:32:35.725Z,99775.67
2019-03-23T22:35:07.498Z,99773.78
2019-03-23T22:37:34.515Z,99771.42
2019-03-23T22:40:07.970Z,99765.45
2019-03-23T22:42:34.915Z,99768.14
2019-03-23T22:45:05.075Z,99769.16
2019-03-23T22:47:32.402Z,99767.52
2019-03-23T22:49:59.374Z,99762.80
2019-03-23T22:52:26.272Z,99762.23
2019-03-23T22:54:53.507Z,99762.75
2019-03-23T22:57:20.444Z,99754.55
2019-03-23T22:59:47.408Z,99757.77
2019-03-23T23:02:14.431Z,99747.70
2019-03-23T23:04:41.370Z,99747.05
2019-03-23T23:07:08.286Z,99739.22
2019-03-23T23:09:35.065Z,99739.84
2019-03-23T23:12:02.043Z,99738.55
2019-03-23T23:14:31.238Z,99737.16
2019-03-23T23:16:58.168Z,99739.68
2019-03-23T23:19:25.388Z,99733.17
2019-03-23T23:21:52.479Z,99732.83
2019-03-23T23:24:20.131Z,99731.97
2019-03-23T23:26:47.018Z,99724.75
2019-03-23T23:29:15.043Z,99726.32
2019-03-23T23:31:42.207Z,99721.22
2019-03-23T23:34:08.965Z,99727.18
2019-03-23T23:36:36.394Z,99727.45
2019-03-23T23:39:06.179Z,99726.32
2019-03-23T23:41:33.058Z,99725.77
2019-03-23T23:44:02.819Z,99712.50
2019-03-23T23:46:30.761Z,99722.20
2019-03-23T23:48:57.703Z,99727.61
2019-03-23T23:51:25.104Z,99723.52
2019-03-23T23:53:52.113Z,99724.28
2019-03-23T23:56:19.040Z,99728.34
2019-03-23T23:58:46.259Z,99718.95
